עמוד ראשי
METAR-TAF:

METAR-TAF

שדות תעופה :

Bluefields, ניקרגואה

קו רוחב: 12-00N, קו אורך: 083-46W, גובה: 5מטר

תצפית מזג אוויר נוכחית

הדו"ח נערך לפני 6 שעות ו 7דקות, בשעה 23:00 UTC
רוח 4קשר מכיוון מזרח
טמפרטורת 30 צלסיוס
לחות 79%
לחץ 1009 hPa
ראות 10 קילומטר או יותר
מעט עננים בגובה 1800רגל

METAR: MNBL 192300Z 08004KT 9999 FEW018 30/26 Q1009

זמן: 23:07 (05:07 UTC)

תחזית

הדו"ח נערך לפני 7 שעות ו 52דקות, בשעה 21:15 UTC
תחזית בתוקף מ 20 ב 00 UTC עד 20 ב 24 UTC
רוח 8קשר מכיוון מזרח
ראות 10 קילומטר או יותר
עננים פזורים בגובה 2300רגל
זמנית מ -
20 ב 05 UTC עד 20 ב 10 UTC
רוח 6קשר מכיוון מזרח/צפון-מזרח
ראות: 8000מטר
עננים פזורים בגובה 1700רגל
באזור, גשם,

TAF: MNBL 192115Z 2000/2024 08008KT 9999 SCT023 TEMPO 2005/2010 06006KT 8000 VCRA SCT017

תצפיות ותחזיות מזג אוויר לגבי יותר מ- 4,000 שדות תעופה ברחבי העולם. דוחות METAR ו- TAF.

התחנות הזמינות מסומנות בנקודות צהובות ואדומות על גבי המפה.

העבר את העכבר לנקודה הצבעונית על מנת לראות את שם התחנה.

לאחר מכן, לחץ כדי לראות את תוכן ואת תחזיות מזג האוויר.

כדי לשנות את המפה: לחץ על הכפתורים הירוקים עם הפלוס השחור כדי להתקרב; על הכפתור הירוק עם המקף כדי להתרחק; או בחיצים הירוקים למפות סמוכות.


METAR-TAF: